createdAt,value
2023-04-21T00:02:13.203Z,4.77
2023-04-21T00:07:16.615Z,4.23
2023-04-21T00:12:18.281Z,4.10
2023-04-21T00:17:20.349Z,4.83
2023-04-21T00:22:23.459Z,4.50
2023-04-21T00:27:25.653Z,4.47
2023-04-21T00:32:27.811Z,3.97
2023-04-21T00:37:31.389Z,3.73
2023-04-21T00:42:33.430Z,3.80
2023-04-21T00:47:35.680Z,4.47
2023-04-21T00:52:39.740Z,3.97
2023-04-21T00:57:42.131Z,3.93
2023-04-21T01:02:44.585Z,4.90
2023-04-21T01:07:48.398Z,4.60
2023-04-21T01:12:50.767Z,3.73
2023-04-21T01:17:54.567Z,4.50
2023-04-21T01:22:57.954Z,5.07
2023-04-21T01:28:00.008Z,4.67
2023-04-21T01:33:02.246Z,4.43
2023-04-21T01:38:05.921Z,4.90
2023-04-21T01:43:08.368Z,4.80
2023-04-21T01:48:10.570Z,4.57
2023-04-21T01:53:14.188Z,5.53
2023-04-21T01:58:16.356Z,5.70
2023-04-21T02:03:19.128Z,4.50
2023-04-21T02:08:22.521Z,5.90
2023-04-21T02:13:24.187Z,5.47
2023-04-21T02:18:26.239Z,5.67
2023-04-21T02:23:29.252Z,5.37
2023-04-21T02:28:30.967Z,4.97
2023-04-21T02:33:32.744Z,6.43
2023-04-21T02:38:35.817Z,4.90
2023-04-21T02:43:37.988Z,5.30
2023-04-21T02:48:39.985Z,5.90
2023-04-21T02:53:43.425Z,6.13
2023-04-21T02:58:45.557Z,5.50
2023-04-21T03:03:47.897Z,6.17
2023-04-21T03:08:51.521Z,6.80
2023-04-21T03:13:53.588Z,6.03
2023-04-21T03:18:55.602Z,6.67
2023-04-21T03:23:58.884Z,6.10
2023-04-21T03:29:01.045Z,7.00
2023-04-21T03:34:03.173Z,5.93
2023-04-21T03:39:19.227Z,5.60
2023-04-21T03:44:25.373Z,6.57
2023-04-21T03:49:27.597Z,6.60
2023-04-21T03:54:31.052Z,6.27
2023-04-21T03:59:33.240Z,7.17
2023-04-21T04:04:35.654Z,7.77
2023-04-21T04:09:39.201Z,7.00
2023-04-21T04:14:41.246Z,6.87
2023-04-21T04:19:43.271Z,7.20
2023-04-21T04:24:46.707Z,7.13
2023-04-21T04:29:48.431Z,6.80
2023-04-21T04:34:50.474Z,7.20
2023-04-21T04:39:54.879Z,6.33
2023-04-21T04:44:57.002Z,6.53
2023-04-21T04:49:58.674Z,5.67
2023-04-21T04:55:01.830Z,6.53
2023-04-21T05:00:04.344Z,6.73
2023-04-21T05:05:07.432Z,6.77
2023-04-21T05:10:11.642Z,6.70
2023-04-21T05:15:13.620Z,6.57
2023-04-21T05:20:15.352Z,6.47
2023-04-21T05:25:18.379Z,6.50
2023-04-21T05:30:20.754Z,6.50
2023-04-21T05:35:22.407Z,6.33
2023-04-21T05:40:25.832Z,6.20
2023-04-21T05:45:27.836Z,6.17
2023-04-21T05:50:29.549Z,6.10
2023-04-21T05:55:34.306Z,6.47
2023-04-21T06:00:36.007Z,7.43
2023-04-21T06:05:38.644Z,6.40
2023-04-21T06:10:41.792Z,6.53
2023-04-21T06:15:44.162Z,6.47
2023-04-21T06:20:50.741Z,5.87
2023-04-21T06:26:05.748Z,6.87
2023-04-21T06:31:08.960Z,6.13
2023-04-21T06:36:11.197Z,7.20
2023-04-21T06:41:14.734Z,6.77
2023-04-21T06:46:16.846Z,6.30
2023-04-21T06:51:18.744Z,6.40
2023-04-21T06:56:22.319Z,6.13
2023-04-21T07:01:24.077Z,6.73
2023-04-21T07:06:27.212Z,6.23
2023-04-21T07:11:30.693Z,7.40
2023-04-21T07:16:33.415Z,6.67
2023-04-21T07:21:35.469Z,5.93
2023-04-21T07:26:38.907Z,6.23
2023-04-21T07:31:41.112Z,5.97
2023-04-21T07:36:43.338Z,6.33
2023-04-21T07:41:47.071Z,6.17
2023-04-21T07:46:49.149Z,6.33
2023-04-21T07:51:52.377Z,6.23
2023-04-21T07:56:55.806Z,5.93
2023-04-21T08:01:58.340Z,6.43
2023-04-21T08:07:00.834Z,6.07
2023-04-21T08:12:04.891Z,6.00
2023-04-21T08:22:27.390Z,6.00
2023-04-21T08:27:30.770Z,5.83
2023-04-21T08:32:32.878Z,5.73
2023-04-21T08:37:37.032Z,5.23
2023-04-21T08:42:40.301Z,5.47
2023-04-21T08:47:43.203Z,4.80
2023-04-21T08:52:45.398Z,5.30
2023-04-21T08:57:49.019Z,5.10
2023-04-21T09:03:00.688Z,5.13
2023-04-21T09:08:11.579Z,5.17
2023-04-21T09:13:16.250Z,4.35
2023-04-21T09:18:20.055Z,4.60
2023-04-21T09:23:22.145Z,4.38
2023-04-21T09:28:31.706Z,4.30
2023-04-21T09:38:36.592Z,4.38
2023-04-21T09:43:40.132Z,4.35
2023-04-21T09:48:44.658Z,4.30
2023-04-21T09:53:50.282Z,4.25
2023-04-21T09:58:54.882Z,4.38
2023-04-21T10:03:57.970Z,4.85
2023-04-21T10:09:01.303Z,4.10
2023-04-21T10:14:05.286Z,3.90
2023-04-21T10:19:25.210Z,3.97
2023-04-21T10:24:28.839Z,4.47
2023-04-21T10:29:48.025Z,3.97
2023-04-21T10:34:56.879Z,4.15
2023-04-21T10:39:59.153Z,4.55
2023-04-21T10:45:07.707Z,4.28
2023-04-21T10:50:21.167Z,3.90
2023-04-21T10:55:26.764Z,3.78
2023-04-21T11:00:30.204Z,4.57
2023-04-21T11:05:35.762Z,4.13
2023-04-21T11:10:46.757Z,4.35
2023-04-21T11:16:05.594Z,4.05
2023-04-21T11:21:13.130Z,4.55
2023-04-21T11:26:15.003Z,3.75
2023-04-21T11:31:18.610Z,4.43
2023-04-21T11:36:22.226Z,4.07
2023-04-21T11:41:24.743Z,3.65
2023-04-21T11:46:28.949Z,4.05
2023-04-21T11:51:34.485Z,4.43
2023-04-21T11:56:37.883Z,3.72
2023-04-21T12:01:45.786Z,3.65
2023-04-21T12:06:55.105Z,3.63
2023-04-21T12:12:00.191Z,3.45
2023-04-21T12:17:06.994Z,3.63
2023-04-21T12:22:09.856Z,3.78
2023-04-21T12:27:13.012Z,3.78
2023-04-21T12:32:16.640Z,3.45
2023-04-21T12:37:19.302Z,3.97
2023-04-21T12:42:21.465Z,4.07
2023-04-21T12:47:25.062Z,3.65
2023-04-21T12:52:27.409Z,4.20
2023-04-21T12:57:29.516Z,4.32
2023-04-21T13:02:33.119Z,3.80
2023-04-21T13:07:35.372Z,3.63
2023-04-21T13:12:37.898Z,4.50
2023-04-21T13:17:41.375Z,4.30
2023-04-21T13:22:43.279Z,4.07
2023-04-21T13:27:45.247Z,3.10
2023-04-21T13:32:49.934Z,3.85
2023-04-21T13:37:52.315Z,3.63
2023-04-21T13:42:54.547Z,3.40
2023-04-21T13:47:57.962Z,4.25
2023-04-21T13:53:00.029Z,3.97
2023-04-21T13:58:02.193Z,3.75
2023-04-21T14:03:05.900Z,3.72
2023-04-21T14:08:08.408Z,3.70
2023-04-21T14:13:15.104Z,3.42
2023-04-21T14:18:31.048Z,3.08
2023-04-21T14:23:33.255Z,3.33
2023-04-21T14:28:35.226Z,3.40
2023-04-21T14:33:38.429Z,3.22
2023-04-21T14:38:40.185Z,3.30
2023-04-21T14:43:42.287Z,2.90
2023-04-21T14:48:46.486Z,3.65
2023-04-21T14:53:50.452Z,2.90
2023-04-21T14:58:52.578Z,3.03
2023-04-21T15:03:56.485Z,4.05
2023-04-21T15:08:59.088Z,3.30
2023-04-21T15:14:01.432Z,2.92
2023-04-21T15:19:04.888Z,3.00
2023-04-21T15:24:07.056Z,3.38
2023-04-21T15:29:08.761Z,3.28
2023-04-21T15:34:12.135Z,3.38
2023-04-21T15:39:14.325Z,3.10
2023-04-21T15:44:16.774Z,3.20
2023-04-21T15:49:20.209Z,2.95
2023-04-21T15:54:22.241Z,2.83
2023-04-21T15:59:25.879Z,3.03
2023-04-21T16:04:29.428Z,3.00
2023-04-21T16:09:32.254Z,3.40
2023-04-21T16:14:46.667Z,3.30
2023-04-21T16:19:55.238Z,3.30
2023-04-21T16:24:57.488Z,3.10
2023-04-21T16:30:00.206Z,2.97
2023-04-21T16:35:04.658Z,3.42
2023-04-21T16:40:08.194Z,3.03
2023-04-21T16:45:10.590Z,3.20
2023-04-21T16:50:13.753Z,3.47
2023-04-21T16:55:15.465Z,3.45
2023-04-21T17:00:28.280Z,3.55
2023-04-21T17:05:32.559Z,3.22
2023-04-21T17:10:35.522Z,3.20
2023-04-21T17:15:40.116Z,3.03
2023-04-21T17:20:45.533Z,3.10
2023-04-21T17:25:47.878Z,2.83
2023-04-21T17:30:51.779Z,3.13
2023-04-21T17:36:03.440Z,2.80
2023-04-21T17:41:05.875Z,3.10
2023-04-21T17:46:08.180Z,2.87
2023-04-21T17:51:11.906Z,3.20
2023-04-21T17:56:14.059Z,2.97
2023-04-21T18:01:16.145Z,2.70
2023-04-21T18:06:19.765Z,3.17
2023-04-21T18:11:21.972Z,3.03
2023-04-21T18:16:24.327Z,3.03
2023-04-21T18:21:27.680Z,2.90
2023-04-21T18:26:29.405Z,2.80
2023-04-21T18:31:31.203Z,2.67
2023-04-21T18:36:37.026Z,2.90
2023-04-21T18:41:40.379Z,2.60
2023-04-21T18:46:42.498Z,3.57
2023-04-21T18:51:45.657Z,2.60
2023-04-21T18:56:47.453Z,2.90
2023-04-21T19:01:50.008Z,3.20
2023-04-21T19:06:53.549Z,2.90
2023-04-21T19:11:56.358Z,3.30
2023-04-21T19:16:58.490Z,2.60
2023-04-21T19:22:01.710Z,3.10
2023-04-21T19:27:03.525Z,3.00
2023-04-21T19:32:05.593Z,2.93
2023-04-21T19:37:09.064Z,3.10
2023-04-21T19:42:10.811Z,2.93
2023-04-21T19:47:12.991Z,2.87
2023-04-21T19:52:16.105Z,3.30
2023-04-21T19:57:17.877Z,2.70
2023-04-21T20:02:19.690Z,2.60
2023-04-21T20:07:23.366Z,3.00
2023-04-21T20:12:25.561Z,3.03
2023-04-21T20:17:27.749Z,2.77
2023-04-21T20:22:31.368Z,3.37
2023-04-21T20:27:33.811Z,2.83
2023-04-21T20:32:35.546Z,3.13
2023-04-21T20:37:38.807Z,2.93
2023-04-21T20:42:41.327Z,2.87
2023-04-21T20:47:43.112Z,3.00
2023-04-21T20:52:46.615Z,3.00
2023-04-21T20:57:48.363Z,2.77
2023-04-21T21:02:50.675Z,3.40
2023-04-21T21:07:54.582Z,3.30
2023-04-21T21:12:56.459Z,3.57
2023-04-21T21:17:58.922Z,2.83
2023-04-21T21:23:02.375Z,3.10
2023-04-21T21:28:04.640Z,2.83
2023-04-21T21:33:06.675Z,3.27
2023-04-21T21:38:10.581Z,3.20
2023-04-21T21:43:12.720Z,3.60
2023-04-21T21:48:14.587Z,3.53
2023-04-21T21:53:18.181Z,3.50
2023-04-21T21:58:20.811Z,3.60
2023-04-21T22:03:23.000Z,3.27
2023-04-21T22:08:26.769Z,3.27
2023-04-21T22:13:29.005Z,3.47
2023-04-21T22:18:31.402Z,3.13
2023-04-21T22:23:35.108Z,3.17
2023-04-21T22:28:37.163Z,3.00
2023-04-21T22:33:39.078Z,3.40
2023-04-21T22:38:42.182Z,3.40
2023-04-21T22:43:44.168Z,3.57
2023-04-21T22:48:46.350Z,3.77
2023-04-21T22:53:49.845Z,4.00
2023-04-21T22:58:52.010Z,4.20
2023-04-21T23:03:54.235Z,4.07
2023-04-21T23:08:57.286Z,4.13
2023-04-21T23:13:59.391Z,3.90
2023-04-21T23:19:01.879Z,3.53
2023-04-21T23:24:05.875Z,3.97
2023-04-21T23:29:07.970Z,3.90
2023-04-21T23:34:10.068Z,3.70
2023-04-21T23:39:13.538Z,3.30
2023-04-21T23:44:15.874Z,4.20
2023-04-21T23:49:17.571Z,3.60
2023-04-21T23:54:20.860Z,4.23
2023-04-21T23:59:22.560Z,3.87
